Latest Weather Observations for Maatsuyker Island

IDT60801

Issued at 8:31 am EDT Tuesday 18 January 2022 (issued every 10 minutes, with the page automatically refreshed every 10 minutes)

About weather observations | Map of weather stations | Latest weather observations for TAS | Other Formats
Station Details ID: 094041 Name: MAATSUYKER ISLAND LIGHTHOUSE Lat: -43.66 Lon: 146.27 Height: 146.5 m
Data from the previous 72 hours. | See also: Recent months at Maatsuyker Island
Date/Time
EDT
Temp
°C
App
Temp
°C
Dew
Point
°C
Rel
Hum
%
Delta-T
°C
Wind Press
QNH
hPa
Press
MSL
hPa
Rain since
9am
mm
Dir  Spd
km/h
Gust
km/h
Spd
kts
Gust
kts
18/08:30am 11.1 6.0 9.2 88 1.0 W 26 37 14 20 1016.5 1016.4 1.0
18/08:00am 11.7 7.1 9.8 88 1.0 WSW 24 35 13 19 1015.9 1015.8 0.8
18/07:30am 12.1 6.3 9.3 83 1.4 WNW 30 35 16 19 1015.1 1015.0 0.8
18/07:00am 11.7 5.8 8.9 83 1.4 W 30 37 16 20 1014.9 1014.8 0.8
18/06:50am 11.6 5.7 9.2 85 1.2 WSW 30 33 16 18 1014.8 - 0.8
18/06:36am 12.0 6.1 9.0 82 1.5 WSW 30 46 16 25 1014.6 1014.5 0.6
18/06:34am 12.0 4.8 9.0 82 1.5 W 37 46 20 25 1014.6 - 0.6
18/06:30am 12.4 7.0 9.4 82 1.5 WSW 28 35 15 19 1014.4 1014.3 0.6
18/06:25am 12.5 6.6 9.0 79 1.8 W 30 41 16 22 1014.3 1014.2 0.6
18/06:23am 12.5 7.0 9.0 79 1.8 WSW 28 35 15 19 1014.3 - 0.6
18/06:00am 12.3 4.8 7.8 74 2.2 W 37 46 20 25 1013.9 1013.8 0.6
18/05:30am 12.1 4.8 8.6 79 1.8 W 37 46 20 25 1013.6 1013.4 0.6
18/05:00am 12.2 6.6 8.9 80 1.7 W 28 39 15 21 1013.3 1013.2 0.6
18/04:30am 11.8 5.5 9.0 83 1.4 W 32 39 17 21 1012.8 1012.7 0.6
18/04:00am 11.4 3.2 9.7 89 0.9 WNW 43 50 23 27 1012.9 1012.7 0.6
18/03:30am 12.1 4.0 10.7 91 0.7 WNW 44 56 24 30 1012.6 1012.5 0.6
18/03:00am 12.4 5.6 10.5 88 1.0 W 37 44 20 24 1012.7 1012.6 0.6
18/02:30am 12.7 4.2 10.8 88 1.0 WNW 46 54 25 29 1012.4 1012.4 0.6
18/02:00am 12.2 3.5 9.9 86 1.2 WNW 46 50 25 27 1012.4 1012.2 0.6
18/01:30am 12.7 4.1 10.4 86 1.2 WNW 46 56 25 30 1012.1 - 0.6
18/01:00am 12.8 2.3 10.3 85 1.3 NW 56 65 30 35 1011.4 1011.3 0.6
18/12:30am 12.8 2.2 10.5 86 1.2 WNW 57 65 31 35 1011.3 1011.2 0.6
18/12:00am 13.5 3.9 10.7 83 1.5 NW 52 59 28 32 1011.0 1010.9 0.6
 
Date/Time
EDT
Temp
°C
App
Temp
°C
Dew
Point
°C
Rel
Hum
%
Delta-T
°C
Wind Press
QNH
hPa
Press
MSL
hPa
Rain since
9am
mm
Dir  Spd
km/h
Gust
km/h
Spd
kts
Gust
kts
17/11:30pm 13.4 5.3 10.2 81 1.7 NW 43 56 23 30 1011.2 1011.1 0.6
17/11:00pm 12.0 3.5 10.6 91 0.7 NW 46 56 25 30 1011.2 1011.1 0.6
17/10:57pm 12.0 4.0 10.6 91 0.7 NNW 43 48 23 26 1011.2 - 0.6
17/10:44pm 12.0 2.7 10.4 90 0.8 NW 50 61 27 33 1011.0 1010.9 0.6
17/10:43pm 11.8 0.3 10.2 90 0.8 NW 61 65 33 35 1010.9 - 0.6
17/10:30pm 12.9 5.5 9.9 82 1.6 NW 39 46 21 25 1011.0 1011.0 0.6
17/10:25pm 12.8 5.1 10.2 84 1.4 NW 41 50 22 27 1011.1 1011.0 0.6
17/10:00pm 12.4 1.6 10.1 86 1.2 NW 57 69 31 37 1010.8 1010.6 0.6
17/09:30pm 12.8 2.9 11.0 89 1.0 NW 54 65 29 35 1010.4 1010.5 0.6
17/09:00pm 13.7 3.8 9.9 78 2.0 NW 52 57 28 31 1010.1 1010.0 0.6
17/08:30pm 13.3 2.7 10.7 84 1.4 NW 57 67 31 36 1009.6 1009.3 0.6
17/08:00pm 13.9 3.8 10.3 79 1.9 NW 54 63 29 34 1008.9 1008.8 0.6
17/07:30pm 14.1 3.6 10.3 78 2.0 NW 56 65 30 35 1008.6 1008.5 0.6
17/07:00pm 14.0 3.4 10.0 77 2.1 NW 56 65 30 35 1008.0 1007.9 0.6
17/06:30pm 14.2 3.7 10.2 77 2.1 NW 56 65 30 35 1007.8 1007.7 0.6
17/06:00pm 14.3 3.5 10.1 76 2.2 NW 57 65 31 35 1007.6 1007.5 0.6
17/05:30pm 14.4 3.3 10.2 76 2.2 NW 59 69 32 37 1007.1 1006.9 0.6
17/05:04pm 14.1 3.5 9.9 76 2.2 NW 56 74 30 40 1006.9 1006.8 0.6
17/05:02pm 14.1 3.5 9.9 76 2.2 NW 56 74 30 40 1006.9 - 0.6
17/05:00pm 14.2 3.7 10.2 77 2.1 NW 56 65 30 35 1007.1 1006.9 0.6
17/04:30pm 15.2 4.2 10.4 73 2.5 NW 59 65 32 35 1006.9 1006.8 0.6
17/04:00pm 14.7 3.0 9.3 70 2.8 NW 61 70 33 38 1006.7 1006.5 0.6
17/03:40pm 15.0 3.4 9.6 70 2.8 NW 61 70 33 38 1006.5 1006.4 0.6
17/03:36pm 10.0 -2.7 5.2 72 2.2 NW 61 69 33 37 1006.6 1006.5 0.6
17/03:30pm 15.1 3.5 9.7 70 2.8 NW 61 69 33 37 1006.5 1006.5 0.6
17/03:00pm 14.6 4.2 9.4 71 2.7 NW 54 65 29 35 1006.5 1006.4 0.6
17/02:30pm 15.0 3.5 10.2 73 2.5 NW 61 67 33 36 1006.5 1006.4 0.6
17/02:00pm 15.2 3.9 9.6 69 2.9 NW 59 70 32 38 1006.6 1006.4 0.6
17/01:30pm 15.5 5.1 10.7 73 2.6 NW 56 63 30 34 1006.6 1006.4 0.6
17/01:00pm 14.8 4.0 9.8 72 2.6 NW 57 65 31 35 1006.1 1006.2 0.6
17/12:30pm 14.9 3.9 9.1 68 3.0 NW 57 65 31 35 1006.3 1006.2 0.6
17/12:00pm 14.1 3.0 8.7 70 2.8 NW 57 69 31 37 1006.3 1006.2 0.6
17/11:30am 14.0 3.6 11.2 83 1.5 NW 57 69 31 37 1005.9 1005.7 0.6
17/11:00am 12.9 2.6 11.8 93 0.6 NW 57 72 31 39 1005.4 1005.2 0.6
17/10:30am 13.2 0.8 11.1 87 1.1 NW 67 82 36 44 1004.5 1004.5 0.6
17/10:26am 13.6 2.9 11.7 88 1.0 NW 59 78 32 42 1004.4 1004.3 0.6
17/10:24am 13.6 2.9 11.7 88 1.0 NW 59 78 32 42 1004.4 - 0.6
17/10:00am 13.6 4.0 12.2 91 0.8 NW 54 63 29 34 1004.7 1004.6 0.4
17/09:30am 12.5 2.9 12.0 97 0.3 NW 54 69 29 37 1004.7 1004.5 0.4
17/09:22am 12.4 3.5 11.9 97 0.3 NW 50 69 27 37 1004.6 1004.5 0.4
17/09:20am 12.4 3.5 11.9 97 0.3 NW 50 69 27 37 1004.6 - 0.4
17/09:00am 12.6 1.7 12.1 97 0.3 NW 61 70 33 38 1004.7 1004.4 0.8
17/08:30am 13.0 0.5 12.1 94 0.5 NW 69 76 37 41 1004.2 1004.0 0.6
17/08:19am 14.9 5.0 11.1 78 2.0 NW 54 80 29 43 1004.0 1003.8 0.4
17/08:17am 14.9 5.0 11.1 78 2.0 NW 54 80 29 43 1004.0 - 0.4
17/08:00am 15.3 6.5 11.1 76 2.3 NW 48 57 26 31 1004.0 1003.5 0.4
17/07:30am 15.0 8.4 11.2 78 2.0 NW 37 48 20 26 1003.9 1003.7 0.4
17/07:00am 14.7 8.2 11.7 82 1.6 NNW 37 46 20 25 1002.9 1002.6 0.4
17/06:30am 14.7 7.8 11.7 82 1.6 NW 39 54 21 29 1003.4 1003.1 0.4
17/06:00am 14.6 6.4 11.6 82 1.6 NNW 46 67 25 36 1003.1 1002.9 0.4
17/05:59am 14.6 6.8 11.7 83 1.6 NW 44 63 24 34 1002.9 1002.7 0.4
17/05:57am 14.6 6.8 11.7 83 1.6 NNW 44 63 24 34 1002.9 - 0.4
17/05:30am 14.6 7.1 12.1 85 1.4 NW 43 54 23 29 1003.2 1003.2 0.2
17/05:03am 13.9 8.1 12.6 92 0.7 NNW 35 56 19 30 1003.5 1003.3 0.2
17/05:01am 13.9 8.1 12.6 92 0.7 NNW 35 56 19 30 1003.5 - 0.2
17/05:00am 13.8 7.9 12.5 92 0.7 NNW 35 44 19 24 1003.5 1003.4 0.2
17/04:30am 14.3 9.3 12.3 88 1.1 NNW 30 37 16 20 1003.6 1003.5 0.2
17/04:00am 14.1 10.2 12.1 88 1.1 NNW 24 32 13 17 1004.0 1004.0 0.2
17/03:30am 14.2 8.2 12.1 87 1.1 NNW 35 46 19 25 1004.4 1004.2 0.2
17/03:00am 14.1 7.3 12.1 88 1.1 NW 39 52 21 28 1003.4 1003.3 0.2
17/02:30am 14.0 8.4 12.0 88 1.1 NW 33 39 18 21 1003.6 1003.4 0.2
17/02:00am 13.9 10.1 12.5 91 0.8 NW 24 30 13 16 1003.9 1003.7 0.2
17/01:30am 13.8 10.8 12.4 91 0.8 NW 20 26 11 14 1004.2 - 0.2
17/01:00am 13.5 11.3 12.2 92 0.7 NNW 15 17 8 9 1004.6 1004.5 0.2
17/12:30am 13.5 11.2 11.7 89 1.0 NNW 15 17 8 9 1004.7 1004.6 0.2
17/12:00am 13.6 12.1 11.8 89 1.0 N 11 13 6 7 1004.9 1004.8 0.2
 
Date/Time
EDT
Temp
°C
App
Temp
°C
Dew
Point
°C
Rel
Hum
%
Delta-T
°C
Wind Press
QNH
hPa
Press
MSL
hPa
Rain since
9am
mm
Dir  Spd
km/h
Gust
km/h
Spd
kts
Gust
kts
16/11:30pm 14.0 12.5 12.0 88 1.1 NNW 11 13 6 7 1005.1 1005.0 0.2
16/11:00pm 13.8 12.9 11.5 86 1.2 N 7 11 4 6 1005.4 1005.3 0.2
16/10:30pm 14.0 13.5 11.9 87 1.1 NW 6 11 3 6 1005.9 1005.8 0.2
16/10:00pm 14.2 13.1 11.9 86 1.3 NW 9 15 5 8 1006.3 1006.1 0.2
16/09:30pm 14.3 13.6 12.0 86 1.3 NNW 7 13 4 7 1006.6 1006.5 0.2
16/09:00pm 14.5 14.0 12.0 85 1.4 NNW 6 13 3 7 1006.5 1006.4 0.2
16/08:30pm 15.3 16.2 12.8 85 1.4 CALM 0 0 0 0 1006.7 1006.6 0.2
16/08:00pm 16.0 15.7 12.6 80 1.9 SE 6 7 3 4 1006.7 1006.6 0.2
16/07:30pm 15.9 15.4 12.5 80 1.9 W 7 9 4 5 1006.6 1006.5 0.2
16/07:00pm 16.0 13.3 12.9 82 1.7 NW 19 22 10 12 1006.6 1006.4 0.2
16/06:30pm 15.8 10.9 12.7 82 1.7 NW 30 32 16 17 1006.1 1006.0 0.2
16/06:00pm 16.3 11.4 12.7 79 2.0 NW 30 33 16 18 1006.3 1006.2 0.2
16/05:30pm 16.5 9.5 12.5 77 2.2 NW 41 44 22 24 1006.2 1006.1 0.2
16/05:00pm 16.5 8.4 11.9 74 2.5 NW 46 50 25 27 1006.2 1006.1 0.2
16/04:30pm 16.6 9.0 11.9 74 2.6 NW 43 46 23 25 1006.6 1006.5 0.2
16/04:00pm 16.0 9.6 12.0 77 2.2 NW 37 41 20 22 1006.8 1006.7 0.2
16/03:30pm 16.5 9.1 12.3 76 2.3 NW 43 46 23 25 1006.9 1006.8 0.2
16/03:00pm 15.4 8.4 11.2 76 2.3 NW 39 43 21 23 1007.3 1007.2 0.2
16/02:30pm 15.1 8.2 11.5 79 1.9 NW 39 43 21 23 1007.3 1007.2 0.2
16/02:00pm 15.0 9.9 12.0 82 1.6 NW 30 35 16 19 1007.3 1007.2 0.2
16/01:30pm 14.8 10.1 12.1 84 1.5 NW 28 32 15 17 1007.8 1007.7 0.2
16/01:00pm 15.2 9.7 12.3 83 1.6 NW 33 39 18 21 1007.6 1007.5 0.2
16/12:30pm 14.4 7.6 12.1 86 1.3 NW 39 46 21 25 1007.8 1007.7 0.2
16/12:00pm 13.8 7.3 12.9 94 0.5 NW 39 46 21 25 1007.9 1007.8 0.2
16/11:30am 13.5 8.1 12.7 95 0.4 NW 33 37 18 20 1007.9 1007.8 0.0
16/11:00am 13.4 7.2 12.8 96 0.3 NW 37 43 20 23 1007.7 1007.6 0.0
16/10:30am 13.4 8.2 12.9 97 0.3 NW 32 39 17 21 1007.6 1007.5 0.0
16/10:00am 13.6 8.6 13.3 98 0.2 NW 32 39 17 21 1007.4 1007.3 0.0
16/09:30am 13.5 9.2 13.2 98 0.2 NW 28 35 15 19 1007.5 1007.4 0.0
16/09:00am 13.6 11.4 13.3 98 0.2 NW 17 20 9 11 1007.3 1007.2 2.6
16/08:30am 13.2 9.2 12.9 98 0.2 NW 26 30 14 16 1007.2 1007.1 2.6
16/08:00am 13.4 9.8 13.1 98 0.2 NW 24 28 13 15 1006.9 1006.8 2.0
16/07:30am 13.5 9.5 13.0 97 0.3 NW 26 32 14 17 1006.4 1006.3 1.4
16/07:00am 13.5 10.6 13.0 97 0.3 NW 20 24 11 13 1006.1 1006.0 1.4
16/06:30am 13.5 10.8 12.9 96 0.3 NW 19 26 10 14 1006.0 1005.9 1.2
16/06:00am 13.5 10.8 12.9 96 0.3 NNW 19 22 10 12 1006.0 1005.9 1.2
16/05:30am 13.9 9.4 12.6 92 0.7 NW 28 35 15 19 1005.6 1005.5 1.2
16/05:00am 14.2 9.0 11.7 85 1.4 NW 30 33 16 18 1005.5 1005.4 1.2
16/04:30am 14.0 7.9 11.7 86 1.2 NW 35 41 19 22 1005.3 1005.2 1.2
16/04:00am 14.0 8.1 12.4 90 0.9 NW 35 41 19 22 1005.2 1005.0 1.2
16/03:30am 13.9 7.5 12.1 89 1.0 NW 37 41 20 22 1005.0 1004.9 1.2
16/03:00am 14.0 6.8 11.9 87 1.1 NW 41 44 22 24 1004.9 1004.8 1.2
16/02:30am 13.9 6.3 11.8 87 1.1 NW 43 50 23 27 1005.0 1004.8 1.2
16/02:00am 13.9 6.5 12.5 91 0.8 NW 43 46 23 25 1004.8 1004.8 1.2
16/01:30am 14.0 8.4 13.2 95 0.4 NW 35 43 19 23 1005.0 - 1.2
16/01:00am 14.0 7.5 12.9 93 0.6 NW 39 43 21 23 1004.9 1004.9 1.2
16/12:30am 14.0 7.2 13.1 94 0.5 NW 41 44 22 24 1004.8 1004.7 1.2
16/12:00am 14.1 8.2 13.5 96 0.3 NW 37 43 20 23 1004.8 1004.7 1.2
 
Date/Time
EDT
Temp
°C
App
Temp
°C
Dew
Point
°C
Rel
Hum
%
Delta-T
°C
Wind Press
QNH
hPa
Press
MSL
hPa
Rain since
9am
mm
Dir  Spd
km/h
Gust
km/h
Spd
kts
Gust
kts
15/11:30pm 14.0 9.0 13.5 97 0.3 NW 32 35 17 19 1004.9 1004.8 1.2
15/11:00pm 14.0 8.5 13.7 98 0.2 NW 35 39 19 21 1004.5 1004.4 1.2
15/10:30pm 14.3 8.6 14.1 99 0.1 NW 37 41 20 22 1004.5 1004.4 1.2
15/10:00pm 14.5 9.6 14.3 99 0.1 NW 33 37 18 20 1004.6 1004.4 1.2
15/09:30pm 14.6 9.9 14.4 99 0.1 NW 32 35 17 19 1004.6 1004.6 1.2
15/09:00pm 14.7 9.8 14.4 98 0.2 WNW 33 39 18 21 1004.5 1004.4 1.2
15/08:30pm 15.0 10.3 14.8 99 0.1 NW 33 37 18 20 1003.9 1003.8 1.2
15/08:25pm 15.0 10.2 14.7 98 0.2 NW 33 37 18 20 1004.1 - 1.2
15/08:00pm 15.1 10.0 14.8 98 0.2 NW 35 41 19 22 1002.0 1001.6 1.2
15/07:30pm 15.2 7.7 14.9 98 0.2 NW 48 52 26 28 1002.4 1001.7 1.2
15/07:15pm 15.2 7.3 14.9 98 0.2 NW 50 57 27 31 1003.7 1003.5 -
15/07:13pm 15.2 7.3 14.9 98 0.2 NW 50 57 27 31 1003.7 - 1.2
15/07:00pm 15.3 6.3 15.0 98 0.2 NW 56 61 30 33 1001.6 1001.3 1.2
15/06:30pm 15.3 5.7 15.0 98 0.2 NW 59 67 32 36 1000.5 1000.4 1.2
15/06:00pm 15.6 6.4 15.1 97 0.3 NW 57 65 31 35 1000.0 999.9 1.2
15/05:30pm 15.9 9.3 15.3 96 0.3 NW 44 50 24 27 1000.7 1000.7 1.2
15/05:00pm 16.5 12.7 15.7 95 0.5 NW 30 37 16 20 1001.1 1001.0 1.2
15/04:30pm 16.7 11.6 15.7 94 0.6 NW 37 46 20 25 1000.9 1000.7 1.2
15/04:00pm 17.4 13.3 16.4 94 0.6 NW 33 43 18 23 1000.8 1000.8 1.2
15/03:30pm 17.0 13.7 16.0 94 0.6 NNW 28 35 15 19 1000.9 1000.8 1.2
15/03:00pm 17.6 15.4 16.8 95 0.5 NNW 24 28 13 15 1001.0 1000.9 1.2
15/02:30pm 16.6 13.3 16.1 97 0.3 NNW 28 33 15 18 1000.9 1000.8 1.2
15/02:00pm 16.5 11.7 15.5 94 0.6 NW 35 43 19 23 1000.8 1000.8 0.4
15/01:57pm 16.6 12.1 15.5 93 0.6 NW 33 41 18 22 1000.9 1000.8 -
15/01:55pm 16.6 12.1 15.5 93 0.6 NW 33 41 18 22 1000.9 - 0.4
15/01:30pm 19.2 17.9 15.7 80 2.1 NNW 17 22 9 12 1001.2 1001.1 0.2
15/01:00pm 19.6 18.9 16.4 82 1.9 NNW 15 20 8 11 1001.2 1001.1 0.2
15/12:30pm 18.3 15.9 15.4 83 1.7 NW 22 26 12 14 1001.1 1001.0 0.2
15/12:00pm 17.8 15.9 15.1 84 1.6 NNW 19 22 10 12 1001.2 1001.1 0.2
15/11:30am 18.1 16.6 15.4 84 1.6 NNW 17 20 9 11 1001.2 1001.1 0.2
15/11:00am 16.8 15.5 15.7 93 0.7 NNW 17 20 9 11 1001.2 1001.2 0.2
15/10:30am 16.7 12.9 14.7 88 1.2 NNW 28 41 15 22 1001.3 1001.3 0.0
15/10:00am 18.8 16.1 13.6 72 3.0 NNW 20 24 11 13 1001.0 1000.9 0.0
15/09:30am 18.8 17.5 13.6 72 3.0 NNW 13 17 7 9 1001.1 1001.0 0.0
15/09:00am 20.2 19.4 14.1 68 3.6 NNW 11 15 6 8 1001.0 1000.9 0.0

Other formats

Comma delimited format used in spreadsheet applications
http://www.bom.gov.au/fwo/IDT60801/IDT60801.94962.axf

JavaScript Object Notation format (JSON) in row-major order
http://www.bom.gov.au/fwo/IDT60801/IDT60801.94962.json

Data quality

Most of these data are generated automatically and are frequently updated. Quality checks on data are not normally performed. It is possible for incorrect values to appear. Refer to information at About Latest Weather Observations and please check the disclaimer before using these data.